Terminal Aerodrome Forecast
Issued by NWS

Home | Current Version | Previous Version | Text Only | Print | Product List | Glossary On
Versions: 1 2 3 4 5 6 7 8 9 10 11 12 13 14 15 16 17 18 19 20 21 22 23 24 25 26 27 28 29 30 31 32 33 34 35 36 37 38 39 40
000
FTUS42 KRAH 031737
TAFRWI
TAF
KRWI 031737Z 0318/0418 05007KT 6SM -SHRA BR BKN008 OVC012
      TEMPO 0318/0322 2SM SHRA BKN005
     FM040200 05009KT 3SM -DZ BR OVC005
      TEMPO 0407/0411 1SM -DZ OVC002
     FM041600 04006KT P6SM OVC015=

USA.gov is the U.S. government's official web portal to all federal, state and local government web resources and services.